sensor_id;sensor_type;location;lat;lon;timestamp;temperature;humidity
16267;DHT22;8241;48.786;9.250;2023-04-03T00:00:09;5.40;99.90
16267;DHT22;8241;48.786;9.250;2023-04-03T00:02:36;5.40;99.90
16267;DHT22;8241;48.786;9.250;2023-04-03T00:05:03;5.40;99.90
16267;DHT22;8241;48.786;9.250;2023-04-03T00:07:30;5.30;99.90
16267;DHT22;8241;48.786;9.250;2023-04-03T00:09:56;5.30;99.90
16267;DHT22;8241;48.786;9.250;2023-04-03T00:12:23;5.30;99.90
16267;DHT22;8241;48.786;9.250;2023-04-03T00:14:51;5.20;99.90
16267;DHT22;8241;48.786;9.250;2023-04-03T00:17:18;5.20;99.90
16267;DHT22;8241;48.786;9.250;2023-04-03T00:19:45;5.10;99.90
16267;DHT22;8241;48.786;9.250;2023-04-03T00:22:12;5.10;99.90
16267;DHT22;8241;48.786;9.250;2023-04-03T00:24:39;5.10;99.90
16267;DHT22;8241;48.786;9.250;2023-04-03T00:27:05;5.10;99.90
16267;DHT22;8241;48.786;9.250;2023-04-03T00:29:32;5.10;99.90
16267;DHT22;8241;48.786;9.250;2023-04-03T00:32:00;5.10;99.90
16267;DHT22;8241;48.786;9.250;2023-04-03T00:34:27;5.20;99.90
16267;DHT22;8241;48.786;9.250;2023-04-03T00:36:54;5.20;99.90
16267;DHT22;8241;48.786;9.250;2023-04-03T00:39:21;5.20;99.90
16267;DHT22;8241;48.786;9.250;2023-04-03T00:41:50;5.20;99.90
16267;DHT22;8241;48.786;9.250;2023-04-03T00:44:19;5.30;99.90
16267;DHT22;8241;48.786;9.250;2023-04-03T00:46:47;5.30;99.90
16267;DHT22;8241;48.786;9.250;2023-04-03T00:49:17;5.20;99.90
16267;DHT22;8241;48.786;9.250;2023-04-03T00:51:44;5.20;99.90
16267;DHT22;8241;48.786;9.250;2023-04-03T00:54:10;5.30;99.90
16267;DHT22;8241;48.786;9.250;2023-04-03T00:56:38;5.30;99.90
16267;DHT22;8241;48.786;9.250;2023-04-03T00:59:06;5.30;99.90
16267;DHT22;8241;48.786;9.250;2023-04-03T01:01:34;5.20;99.90
16267;DHT22;8241;48.786;9.250;2023-04-03T01:04:01;5.20;99.90
16267;DHT22;8241;48.786;9.250;2023-04-03T01:06:31;5.20;99.90
16267;DHT22;8241;48.786;9.250;2023-04-03T01:09:04;5.20;99.90
16267;DHT22;8241;48.786;9.250;2023-04-03T01:11:31;5.20;99.90
16267;DHT22;8241;48.786;9.250;2023-04-03T01:14:00;5.20;99.90
16267;DHT22;8241;48.786;9.250;2023-04-03T01:16:27;5.20;99.90
16267;DHT22;8241;48.786;9.250;2023-04-03T01:18:57;5.20;99.90
16267;DHT22;8241;48.786;9.250;2023-04-03T01:21:34;5.10;99.90
16267;DHT22;8241;48.786;9.250;2023-04-03T01:24:08;5.20;99.90
16267;DHT22;8241;48.786;9.250;2023-04-03T01:26:37;5.20;99.90
16267;DHT22;8241;48.786;9.250;2023-04-03T01:29:03;5.20;99.90
16267;DHT22;8241;48.786;9.250;2023-04-03T01:31:31;5.20;99.90
16267;DHT22;8241;48.786;9.250;2023-04-03T01:33:59;5.20;99.90
16267;DHT22;8241;48.786;9.250;2023-04-03T01:36:30;5.20;99.90
16267;DHT22;8241;48.786;9.250;2023-04-03T01:38:58;5.20;99.90
16267;DHT22;8241;48.786;9.250;2023-04-03T01:41:25;5.20;99.90
16267;DHT22;8241;48.786;9.250;2023-04-03T01:43:58;5.20;99.90
16267;DHT22;8241;48.786;9.250;2023-04-03T01:46:25;5.10;99.90
16267;DHT22;8241;48.786;9.250;2023-04-03T01:48:52;5.10;99.90
16267;DHT22;8241;48.786;9.250;2023-04-03T01:51:20;5.10;99.90
16267;DHT22;8241;48.786;9.250;2023-04-03T01:53:47;5.10;99.90
16267;DHT22;8241;48.786;9.250;2023-04-03T01:56:13;5.20;99.90
16267;DHT22;8241;48.786;9.250;2023-04-03T01:58:40;5.10;99.90
16267;DHT22;8241;48.786;9.250;2023-04-03T02:01:08;5.10;99.90
16267;DHT22;8241;48.786;9.250;2023-04-03T02:03:35;5.10;99.90
16267;DHT22;8241;48.786;9.250;2023-04-03T02:06:02;5.10;99.90
16267;DHT22;8241;48.786;9.250;2023-04-03T02:08:30;5.10;99.90
16267;DHT22;8241;48.786;9.250;2023-04-03T02:10:57;5.10;99.90
16267;DHT22;8241;48.786;9.250;2023-04-03T02:13:24;5.20;99.90
16267;DHT22;8241;48.786;9.250;2023-04-03T02:15:50;5.20;99.90
16267;DHT22;8241;48.786;9.250;2023-04-03T02:18:17;5.10;99.90
16267;DHT22;8241;48.786;9.250;2023-04-03T02:20:46;5.20;99.90
16267;DHT22;8241;48.786;9.250;2023-04-03T02:23:13;5.20;99.90
16267;DHT22;8241;48.786;9.250;2023-04-03T02:25:41;5.20;99.90
16267;DHT22;8241;48.786;9.250;2023-04-03T02:28:08;5.20;99.90
16267;DHT22;8241;48.786;9.250;2023-04-03T02:30:35;5.10;99.90
16267;DHT22;8241;48.786;9.250;2023-04-03T02:33:03;5.10;99.90
16267;DHT22;8241;48.786;9.250;2023-04-03T02:35:30;5.10;99.90
16267;DHT22;8241;48.786;9.250;2023-04-03T02:37:58;5.10;99.90
16267;DHT22;8241;48.786;9.250;2023-04-03T02:40:25;5.20;99.90
16267;DHT22;8241;48.786;9.250;2023-04-03T02:42:53;5.10;99.90
16267;DHT22;8241;48.786;9.250;2023-04-03T02:45:22;5.10;99.90
16267;DHT22;8241;48.786;9.250;2023-04-03T02:47:49;5.10;99.90
16267;DHT22;8241;48.786;9.250;2023-04-03T02:50:16;5.10;99.50
16267;DHT22;8241;48.786;9.250;2023-04-03T02:52:43;5.10;99.00
16267;DHT22;8241;48.786;9.250;2023-04-03T02:55:12;5.10;98.90
16267;DHT22;8241;48.786;9.250;2023-04-03T02:57:40;5.10;98.90
16267;DHT22;8241;48.786;9.250;2023-04-03T03:00:09;5.10;98.60
16267;DHT22;8241;48.786;9.250;2023-04-03T03:02:36;5.10;99.10
16267;DHT22;8241;48.786;9.250;2023-04-03T03:05:03;5.00;99.30
16267;DHT22;8241;48.786;9.250;2023-04-03T03:07:31;5.00;99.10
16267;DHT22;8241;48.786;9.250;2023-04-03T03:09:58;5.00;99.10
16267;DHT22;8241;48.786;9.250;2023-04-03T03:12:26;5.00;99.10
16267;DHT22;8241;48.786;9.250;2023-04-03T03:14:53;5.00;99.30
16267;DHT22;8241;48.786;9.250;2023-04-03T03:17:21;5.00;99.50
16267;DHT22;8241;48.786;9.250;2023-04-03T03:19:48;5.00;99.60
16267;DHT22;8241;48.786;9.250;2023-04-03T03:22:15;5.00;99.40
16267;DHT22;8241;48.786;9.250;2023-04-03T03:24:43;5.00;99.10
16267;DHT22;8241;48.786;9.250;2023-04-03T03:27:10;5.00;99.30
16267;DHT22;8241;48.786;9.250;2023-04-03T03:29:38;5.00;99.50
16267;DHT22;8241;48.786;9.250;2023-04-03T03:32:05;5.00;99.40
16267;DHT22;8241;48.786;9.250;2023-04-03T03:34:33;5.00;99.70
16267;DHT22;8241;48.786;9.250;2023-04-03T03:37:00;5.00;99.60
16267;DHT22;8241;48.786;9.250;2023-04-03T03:39:28;5.00;99.30
16267;DHT22;8241;48.786;9.250;2023-04-03T03:41:57;5.00;98.60
16267;DHT22;8241;48.786;9.250;2023-04-03T03:44:24;5.00;98.70
16267;DHT22;8241;48.786;9.250;2023-04-03T03:46:52;5.00;98.20
16267;DHT22;8241;48.786;9.250;2023-04-03T03:51:51;5.00;98.10
16267;DHT22;8241;48.786;9.250;2023-04-03T03:54:18;4.90;98.20
16267;DHT22;8241;48.786;9.250;2023-04-03T03:56:57;4.90;98.20
16267;DHT22;8241;48.786;9.250;2023-04-03T03:59:24;4.90;98.20
16267;DHT22;8241;48.786;9.250;2023-04-03T04:01:52;4.90;98.20
16267;DHT22;8241;48.786;9.250;2023-04-03T04:04:18;4.90;98.00
16267;DHT22;8241;48.786;9.250;2023-04-03T04:06:46;4.90;98.60
16267;DHT22;8241;48.786;9.250;2023-04-03T04:09:14;4.90;98.60
16267;DHT22;8241;48.786;9.250;2023-04-03T04:11:41;4.90;98.50
16267;DHT22;8241;48.786;9.250;2023-04-03T04:14:11;4.90;98.50
16267;DHT22;8241;48.786;9.250;2023-04-03T04:16:40;4.90;98.60
16267;DHT22;8241;48.786;9.250;2023-04-03T04:19:13;5.00;98.20
16267;DHT22;8241;48.786;9.250;2023-04-03T04:21:40;5.00;98.10
16267;DHT22;8241;48.786;9.250;2023-04-03T04:24:08;5.00;98.10
16267;DHT22;8241;48.786;9.250;2023-04-03T04:26:37;5.00;98.50
16267;DHT22;8241;48.786;9.250;2023-04-03T04:29:05;5.00;98.10
16267;DHT22;8241;48.786;9.250;2023-04-03T04:31:34;5.00;97.60
16267;DHT22;8241;48.786;9.250;2023-04-03T04:34:01;5.00;97.10
16267;DHT22;8241;48.786;9.250;2023-04-03T04:36:28;5.10;97.30
16267;DHT22;8241;48.786;9.250;2023-04-03T04:38:55;5.10;97.70
16267;DHT22;8241;48.786;9.250;2023-04-03T04:41:26;5.10;97.50
16267;DHT22;8241;48.786;9.250;2023-04-03T04:43:54;5.20;97.60
16267;DHT22;8241;48.786;9.250;2023-04-03T04:46:22;5.10;97.00
16267;DHT22;8241;48.786;9.250;2023-04-03T04:48:54;5.10;97.60
16267;DHT22;8241;48.786;9.250;2023-04-03T04:51:25;5.10;97.70
16267;DHT22;8241;48.786;9.250;2023-04-03T04:53:56;5.10;97.50
16267;DHT22;8241;48.786;9.250;2023-04-03T04:56:24;5.10;97.20
16267;DHT22;8241;48.786;9.250;2023-04-03T04:58:55;5.10;97.70
16267;DHT22;8241;48.786;9.250;2023-04-03T05:01:23;5.10;97.10
16267;DHT22;8241;48.786;9.250;2023-04-03T05:04:10;5.10;97.00
16267;DHT22;8241;48.786;9.250;2023-04-03T05:06:39;5.10;96.60
16267;DHT22;8241;48.786;9.250;2023-04-03T05:09:11;5.10;96.90
16267;DHT22;8241;48.786;9.250;2023-04-03T05:11:46;5.10;97.10
16267;DHT22;8241;48.786;9.250;2023-04-03T05:14:18;5.20;97.10
16267;DHT22;8241;48.786;9.250;2023-04-03T05:16:45;5.20;97.10
16267;DHT22;8241;48.786;9.250;2023-04-03T05:19:16;5.20;96.90
16267;DHT22;8241;48.786;9.250;2023-04-03T05:21:49;5.30;96.30
16267;DHT22;8241;48.786;9.250;2023-04-03T05:24:17;5.20;96.70
16267;DHT22;8241;48.786;9.250;2023-04-03T05:26:47;5.20;96.90
16267;DHT22;8241;48.786;9.250;2023-04-03T05:29:15;5.20;96.60
16267;DHT22;8241;48.786;9.250;2023-04-03T05:31:47;5.20;96.90
16267;DHT22;8241;48.786;9.250;2023-04-03T05:34:16;5.30;97.00
16267;DHT22;8241;48.786;9.250;2023-04-03T05:36:46;5.30;97.00
16267;DHT22;8241;48.786;9.250;2023-04-03T05:39:14;5.30;97.20
16267;DHT22;8241;48.786;9.250;2023-04-03T05:41:43;5.30;97.10
16267;DHT22;8241;48.786;9.250;2023-04-03T05:44:10;5.30;97.30
16267;DHT22;8241;48.786;9.250;2023-04-03T05:46:37;5.30;97.30
16267;DHT22;8241;48.786;9.250;2023-04-03T05:49:08;5.30;97.30
16267;DHT22;8241;48.786;9.250;2023-04-03T05:51:36;5.20;97.30
16267;DHT22;8241;48.786;9.250;2023-04-03T05:54:12;5.20;97.60
16267;DHT22;8241;48.786;9.250;2023-04-03T05:56:40;5.20;97.60
16267;DHT22;8241;48.786;9.250;2023-04-03T05:59:07;5.20;97.60
16267;DHT22;8241;48.786;9.250;2023-04-03T06:01:34;5.20;97.20
16267;DHT22;8241;48.786;9.250;2023-04-03T06:04:01;5.20;97.00
16267;DHT22;8241;48.786;9.250;2023-04-03T06:06:43;5.20;97.40
16267;DHT22;8241;48.786;9.250;2023-04-03T06:09:10;5.20;97.10
16267;DHT22;8241;48.786;9.250;2023-04-03T06:11:37;5.30;97.10
16267;DHT22;8241;48.786;9.250;2023-04-03T06:14:04;5.30;96.90
16267;DHT22;8241;48.786;9.250;2023-04-03T06:16:34;5.30;97.10
16267;DHT22;8241;48.786;9.250;2023-04-03T06:19:00;5.40;97.00
16267;DHT22;8241;48.786;9.250;2023-04-03T06:21:27;5.40;96.80
16267;DHT22;8241;48.786;9.250;2023-04-03T06:23:56;5.40;96.70
16267;DHT22;8241;48.786;9.250;2023-04-03T06:26:23;5.50;96.70
16267;DHT22;8241;48.786;9.250;2023-04-03T06:28:50;5.50;96.50
16267;DHT22;8241;48.786;9.250;2023-04-03T06:31:16;5.50;96.40
16267;DHT22;8241;48.786;9.250;2023-04-03T06:33:43;5.50;96.90
16267;DHT22;8241;48.786;9.250;2023-04-03T06:36:10;5.50;96.70
16267;DHT22;8241;48.786;9.250;2023-04-03T06:38:38;5.60;96.40
16267;DHT22;8241;48.786;9.250;2023-04-03T06:41:06;5.60;96.70
16267;DHT22;8241;48.786;9.250;2023-04-03T06:43:33;5.60;96.60
16267;DHT22;8241;48.786;9.250;2023-04-03T06:46:00;5.60;96.80
16267;DHT22;8241;48.786;9.250;2023-04-03T06:48:27;5.60;96.60
16267;DHT22;8241;48.786;9.250;2023-04-03T06:50:54;5.60;96.50
16267;DHT22;8241;48.786;9.250;2023-04-03T06:53:21;5.70;96.80
16267;DHT22;8241;48.786;9.250;2023-04-03T06:55:48;5.60;96.50
16267;DHT22;8241;48.786;9.250;2023-04-03T06:58:16;5.60;96.60
16267;DHT22;8241;48.786;9.250;2023-04-03T07:00:43;5.70;96.50
16267;DHT22;8241;48.786;9.250;2023-04-03T07:03:10;5.60;96.40
16267;DHT22;8241;48.786;9.250;2023-04-03T07:05:37;5.60;96.50
16267;DHT22;8241;48.786;9.250;2023-04-03T07:08:04;5.70;96.50
16267;DHT22;8241;48.786;9.250;2023-04-03T07:10:31;5.70;96.30
16267;DHT22;8241;48.786;9.250;2023-04-03T07:12:58;5.60;96.10
16267;DHT22;8241;48.786;9.250;2023-04-03T07:15:28;5.60;96.30
16267;DHT22;8241;48.786;9.250;2023-04-03T07:17:55;5.60;96.60
16267;DHT22;8241;48.786;9.250;2023-04-03T07:20:22;5.60;96.50
16267;DHT22;8241;48.786;9.250;2023-04-03T07:22:49;5.70;96.60
16267;DHT22;8241;48.786;9.250;2023-04-03T07:25:16;5.70;96.40
16267;DHT22;8241;48.786;9.250;2023-04-03T07:27:42;5.80;96.50
16267;DHT22;8241;48.786;9.250;2023-04-03T07:30:10;5.80;96.90
16267;DHT22;8241;48.786;9.250;2023-04-03T07:32:38;5.90;96.70
16267;DHT22;8241;48.786;9.250;2023-04-03T07:35:05;6.00;96.30
16267;DHT22;8241;48.786;9.250;2023-04-03T07:37:31;6.10;96.20
16267;DHT22;8241;48.786;9.250;2023-04-03T07:39:58;6.10;96.10
16267;DHT22;8241;48.786;9.250;2023-04-03T07:42:28;6.20;96.00
16267;DHT22;8241;48.786;9.250;2023-04-03T07:44:54;6.20;95.80
16267;DHT22;8241;48.786;9.250;2023-04-03T07:47:22;6.20;95.50
16267;DHT22;8241;48.786;9.250;2023-04-03T07:49:50;6.20;95.40
16267;DHT22;8241;48.786;9.250;2023-04-03T07:52:17;6.10;95.40
16267;DHT22;8241;48.786;9.250;2023-04-03T07:54:44;6.10;95.60
16267;DHT22;8241;48.786;9.250;2023-04-03T07:57:11;6.20;95.90
16267;DHT22;8241;48.786;9.250;2023-04-03T07:59:37;6.20;95.90
16267;DHT22;8241;48.786;9.250;2023-04-03T08:02:07;6.30;95.90
16267;DHT22;8241;48.786;9.250;2023-04-03T08:04:34;6.40;95.80
16267;DHT22;8241;48.786;9.250;2023-04-03T08:07:03;6.50;95.50
16267;DHT22;8241;48.786;9.250;2023-04-03T08:09:30;6.50;95.60
16267;DHT22;8241;48.786;9.250;2023-04-03T08:11:56;6.60;95.60
16267;DHT22;8241;48.786;9.250;2023-04-03T08:14:23;6.50;94.90
16267;DHT22;8241;48.786;9.250;2023-04-03T08:16:50;6.50;95.00
16267;DHT22;8241;48.786;9.250;2023-04-03T08:19:17;6.40;94.80
16267;DHT22;8241;48.786;9.250;2023-04-03T08:21:44;6.40;95.20
16267;DHT22;8241;48.786;9.250;2023-04-03T08:24:13;6.40;95.70
16267;DHT22;8241;48.786;9.250;2023-04-03T08:26:40;6.50;95.50
16267;DHT22;8241;48.786;9.250;2023-04-03T08:29:07;6.60;95.20
16267;DHT22;8241;48.786;9.250;2023-04-03T08:31:34;6.50;95.60
16267;DHT22;8241;48.786;9.250;2023-04-03T08:34:02;6.50;95.60
16267;DHT22;8241;48.786;9.250;2023-04-03T08:36:29;6.60;95.80
16267;DHT22;8241;48.786;9.250;2023-04-03T08:38:56;6.70;95.90
16267;DHT22;8241;48.786;9.250;2023-04-03T08:41:27;6.80;96.20
16267;DHT22;8241;48.786;9.250;2023-04-03T08:43:58;6.80;95.70
16267;DHT22;8241;48.786;9.250;2023-04-03T08:46:31;6.80;94.80
16267;DHT22;8241;48.786;9.250;2023-04-03T08:49:01;6.80;94.90
16267;DHT22;8241;48.786;9.250;2023-04-03T08:51:28;6.90;95.10
16267;DHT22;8241;48.786;9.250;2023-04-03T08:53:56;7.10;94.90
16267;DHT22;8241;48.786;9.250;2023-04-03T08:56:26;7.10;95.10
16267;DHT22;8241;48.786;9.250;2023-04-03T08:58:55;7.10;95.20
16267;DHT22;8241;48.786;9.250;2023-04-03T09:01:23;7.20;95.20
16267;DHT22;8241;48.786;9.250;2023-04-03T09:03:52;7.20;95.10
16267;DHT22;8241;48.786;9.250;2023-04-03T09:06:19;7.30;94.90
16267;DHT22;8241;48.786;9.250;2023-04-03T09:08:48;7.20;94.30
16267;DHT22;8241;48.786;9.250;2023-04-03T09:11:18;7.20;93.60
16267;DHT22;8241;48.786;9.250;2023-04-03T09:13:49;7.20;93.50
16267;DHT22;8241;48.786;9.250;2023-04-03T09:16:25;7.30;93.70
16267;DHT22;8241;48.786;9.250;2023-04-03T09:18:53;7.30;93.60
16267;DHT22;8241;48.786;9.250;2023-04-03T09:21:25;7.30;93.30
16267;DHT22;8241;48.786;9.250;2023-04-03T09:23:55;7.30;92.90
16267;DHT22;8241;48.786;9.250;2023-04-03T09:26:23;7.30;93.10
16267;DHT22;8241;48.786;9.250;2023-04-03T09:28:52;7.30;93.60
16267;DHT22;8241;48.786;9.250;2023-04-03T09:31:21;7.30;93.30
16267;DHT22;8241;48.786;9.250;2023-04-03T09:33:49;7.30;93.20
16267;DHT22;8241;48.786;9.250;2023-04-03T09:39:02;7.30;93.50
16267;DHT22;8241;48.786;9.250;2023-04-03T09:41:30;7.30;93.80
16267;DHT22;8241;48.786;9.250;2023-04-03T09:43:59;7.30;93.60
16267;DHT22;8241;48.786;9.250;2023-04-03T09:46:29;7.30;93.40
16267;DHT22;8241;48.786;9.250;2023-04-03T09:48:58;7.30;93.60
16267;DHT22;8241;48.786;9.250;2023-04-03T09:51:25;7.30;93.60
16267;DHT22;8241;48.786;9.250;2023-04-03T09:53:54;7.30;93.60
16267;DHT22;8241;48.786;9.250;2023-04-03T09:56:22;7.30;93.60
16267;DHT22;8241;48.786;9.250;2023-04-03T09:58:50;7.30;93.60
16267;DHT22;8241;48.786;9.250;2023-04-03T10:01:22;7.20;93.70
16267;DHT22;8241;48.786;9.250;2023-04-03T10:04:02;7.20;93.00
16267;DHT22;8241;48.786;9.250;2023-04-03T10:06:30;7.20;93.00
16267;DHT22;8241;48.786;9.250;2023-04-03T10:08:58;7.20;93.30
16267;DHT22;8241;48.786;9.250;2023-04-03T10:11:26;7.20;93.50
16267;DHT22;8241;48.786;9.250;2023-04-03T10:13:54;7.20;93.50
16267;DHT22;8241;48.786;9.250;2023-04-03T10:16:25;7.30;93.30
16267;DHT22;8241;48.786;9.250;2023-04-03T10:18:56;7.30;93.30
16267;DHT22;8241;48.786;9.250;2023-04-03T10:21:29;7.40;93.40
16267;DHT22;8241;48.786;9.250;2023-04-03T10:23:58;7.50;93.30
16267;DHT22;8241;48.786;9.250;2023-04-03T10:26:32;7.50;93.30
16267;DHT22;8241;48.786;9.250;2023-04-03T10:29:06;7.50;93.40
16267;DHT22;8241;48.786;9.250;2023-04-03T10:31:37;7.50;93.10
16267;DHT22;8241;48.786;9.250;2023-04-03T10:34:06;7.50;92.90
16267;DHT22;8241;48.786;9.250;2023-04-03T10:36:37;7.40;92.70
16267;DHT22;8241;48.786;9.250;2023-04-03T10:39:09;7.40;92.90
16267;DHT22;8241;48.786;9.250;2023-04-03T10:41:42;7.30;93.40
16267;DHT22;8241;48.786;9.250;2023-04-03T10:44:14;7.40;92.90
16267;DHT22;8241;48.786;9.250;2023-04-03T10:46:44;7.40;92.30
16267;DHT22;8241;48.786;9.250;2023-04-03T10:49:18;7.40;92.40
16267;DHT22;8241;48.786;9.250;2023-04-03T10:51:46;7.40;92.60
16267;DHT22;8241;48.786;9.250;2023-04-03T10:54:16;7.30;92.70
16267;DHT22;8241;48.786;9.250;2023-04-03T10:56:44;7.40;92.70
16267;DHT22;8241;48.786;9.250;2023-04-03T10:59:16;7.30;92.40
16267;DHT22;8241;48.786;9.250;2023-04-03T11:01:47;7.30;92.00
16267;DHT22;8241;48.786;9.250;2023-04-03T11:04:14;7.30;91.40
16267;DHT22;8241;48.786;9.250;2023-04-03T11:06:43;7.40;91.30
16267;DHT22;8241;48.786;9.250;2023-04-03T11:09:16;7.30;90.90
16267;DHT22;8241;48.786;9.250;2023-04-03T11:11:45;7.40;90.50
16267;DHT22;8241;48.786;9.250;2023-04-03T11:14:17;7.40;91.00
16267;DHT22;8241;48.786;9.250;2023-04-03T11:16:50;7.40;90.00
16267;DHT22;8241;48.786;9.250;2023-04-03T11:19:18;7.30;88.70
16267;DHT22;8241;48.786;9.250;2023-04-03T11:21:51;7.30;90.00
16267;DHT22;8241;48.786;9.250;2023-04-03T11:24:22;7.30;89.00
16267;DHT22;8241;48.786;9.250;2023-04-03T11:26:50;7.30;87.90
16267;DHT22;8241;48.786;9.250;2023-04-03T11:29:19;7.30;88.80
16267;DHT22;8241;48.786;9.250;2023-04-03T11:31:55;7.40;87.80
16267;DHT22;8241;48.786;9.250;2023-04-03T11:34:29;7.40;86.50
16267;DHT22;8241;48.786;9.250;2023-04-03T11:37:02;7.50;88.50
16267;DHT22;8241;48.786;9.250;2023-04-03T11:39:31;7.50;89.20
16267;DHT22;8241;48.786;9.250;2023-04-03T11:42:12;7.60;90.00
16267;DHT22;8241;48.786;9.250;2023-04-03T11:44:40;7.60;90.10
16267;DHT22;8241;48.786;9.250;2023-04-03T11:47:09;7.50;90.50
16267;DHT22;8241;48.786;9.250;2023-04-03T11:49:56;7.50;90.80
16267;DHT22;8241;48.786;9.250;2023-04-03T11:58:04;7.50;90.30
16267;DHT22;8241;48.786;9.250;2023-04-03T12:00:48;7.40;90.30
16267;DHT22;8241;48.786;9.250;2023-04-03T12:08:54;7.40;91.10
16267;DHT22;8241;48.786;9.250;2023-04-03T12:11:23;7.40;90.80
16267;DHT22;8241;48.786;9.250;2023-04-03T12:14:03;7.40;91.00
16267;DHT22;8241;48.786;9.250;2023-04-03T12:16:32;7.30;91.20
16267;DHT22;8241;48.786;9.250;2023-04-03T12:19:00;7.30;90.60
16267;DHT22;8241;48.786;9.250;2023-04-03T12:27:05;7.30;90.30
16267;DHT22;8241;48.786;9.250;2023-04-03T12:29:37;7.40;89.80
16267;DHT22;8241;48.786;9.250;2023-04-03T12:32:08;7.40;88.80
16267;DHT22;8241;48.786;9.250;2023-04-03T12:34:42;7.50;89.40
16267;DHT22;8241;48.786;9.250;2023-04-03T12:37:16;7.50;87.10
16267;DHT22;8241;48.786;9.250;2023-04-03T12:39:58;7.50;87.30
16267;DHT22;8241;48.786;9.250;2023-04-03T12:42:35;7.50;85.40
16267;DHT22;8241;48.786;9.250;2023-04-03T12:45:08;7.50;85.90
16267;DHT22;8241;48.786;9.250;2023-04-03T12:47:36;7.50;86.10
16267;DHT22;8241;48.786;9.250;2023-04-03T12:50:13;7.60;85.70
16267;DHT22;8241;48.786;9.250;2023-04-03T12:52:44;7.60;86.30
16267;DHT22;8241;48.786;9.250;2023-04-03T12:55:14;7.70;87.80
16267;DHT22;8241;48.786;9.250;2023-04-03T12:57:42;7.70;87.90
16267;DHT22;8241;48.786;9.250;2023-04-03T13:00:19;7.70;88.20
16267;DHT22;8241;48.786;9.250;2023-04-03T13:02:46;7.90;88.10
16267;DHT22;8241;48.786;9.250;2023-04-03T13:05:15;8.10;88.50
16267;DHT22;8241;48.786;9.250;2023-04-03T13:07:42;8.20;87.40
16267;DHT22;8241;48.786;9.250;2023-04-03T13:10:14;8.30;86.40
16267;DHT22;8241;48.786;9.250;2023-04-03T13:12:47;8.40;86.50
16267;DHT22;8241;48.786;9.250;2023-04-03T13:15:15;8.40;85.50
16267;DHT22;8241;48.786;9.250;2023-04-03T13:17:44;8.50;84.60
16267;DHT22;8241;48.786;9.250;2023-04-03T13:20:12;8.50;84.10
16267;DHT22;8241;48.786;9.250;2023-04-03T13:22:42;8.40;83.70
16267;DHT22;8241;48.786;9.250;2023-04-03T13:25:13;8.40;83.70
16267;DHT22;8241;48.786;9.250;2023-04-03T13:27:40;8.40;84.80
16267;DHT22;8241;48.786;9.250;2023-04-03T13:30:18;8.40;84.60
16267;DHT22;8241;48.786;9.250;2023-04-03T13:32:46;8.30;84.70
16267;DHT22;8241;48.786;9.250;2023-04-03T13:35:30;8.40;84.80
16267;DHT22;8241;48.786;9.250;2023-04-03T13:37:57;8.60;85.70
16267;DHT22;8241;48.786;9.250;2023-04-03T13:40:25;9.20;85.00
16267;DHT22;8241;48.786;9.250;2023-04-03T13:42:59;9.60;81.70
16267;DHT22;8241;48.786;9.250;2023-04-03T13:45:28;9.80;80.10
16267;DHT22;8241;48.786;9.250;2023-04-03T13:48:06;9.80;79.60
16267;DHT22;8241;48.786;9.250;2023-04-03T13:50:41;9.70;78.60
16267;DHT22;8241;48.786;9.250;2023-04-03T13:53:17;9.70;80.50
16267;DHT22;8241;48.786;9.250;2023-04-03T13:55:52;9.80;80.40
16267;DHT22;8241;48.786;9.250;2023-04-03T13:58:26;9.90;80.50
16267;DHT22;8241;48.786;9.250;2023-04-03T14:00:56;9.90;80.40
16267;DHT22;8241;48.786;9.250;2023-04-03T14:03:28;9.80;80.00
16267;DHT22;8241;48.786;9.250;2023-04-03T14:05:55;9.60;80.20
16267;DHT22;8241;48.786;9.250;2023-04-03T14:08:22;9.50;81.70
16267;DHT22;8241;48.786;9.250;2023-04-03T14:10:49;9.30;80.40
16267;DHT22;8241;48.786;9.250;2023-04-03T14:13:17;9.10;80.60
16267;DHT22;8241;48.786;9.250;2023-04-03T14:15:46;9.00;81.70
16267;DHT22;8241;48.786;9.250;2023-04-03T14:18:16;8.90;81.50
16267;DHT22;8241;48.786;9.250;2023-04-03T14:20:43;8.80;82.30
16267;DHT22;8241;48.786;9.250;2023-04-03T14:23:11;8.70;82.90
16267;DHT22;8241;48.786;9.250;2023-04-03T14:25:38;8.60;82.20
16267;DHT22;8241;48.786;9.250;2023-04-03T14:28:12;8.60;81.30
16267;DHT22;8241;48.786;9.250;2023-04-03T14:30:40;8.70;81.10
16267;DHT22;8241;48.786;9.250;2023-04-03T14:33:09;9.00;80.70
16267;DHT22;8241;48.786;9.250;2023-04-03T14:35:38;9.60;80.60
16267;DHT22;8241;48.786;9.250;2023-04-03T14:38:05;10.10;78.30
16267;DHT22;8241;48.786;9.250;2023-04-03T14:40:32;10.30;77.70
16267;DHT22;8241;48.786;9.250;2023-04-03T14:42:59;10.20;76.10
16267;DHT22;8241;48.786;9.250;2023-04-03T14:45:26;10.00;76.30
16267;DHT22;8241;48.786;9.250;2023-04-03T14:47:54;9.90;77.80
16267;DHT22;8241;48.786;9.250;2023-04-03T14:50:22;9.70;78.70
16267;DHT22;8241;48.786;9.250;2023-04-03T14:52:52;9.60;79.00
16267;DHT22;8241;48.786;9.250;2023-04-03T14:55:21;9.40;78.70
16267;DHT22;8241;48.786;9.250;2023-04-03T14:57:48;9.20;79.20
16267;DHT22;8241;48.786;9.250;2023-04-03T15:00:16;9.10;79.40
16267;DHT22;8241;48.786;9.250;2023-04-03T15:02:43;9.00;79.20
16267;DHT22;8241;48.786;9.250;2023-04-03T15:05:11;8.90;79.40
16267;DHT22;8241;48.786;9.250;2023-04-03T15:07:40;8.80;79.80
16267;DHT22;8241;48.786;9.250;2023-04-03T15:10:16;8.70;80.40
16267;DHT22;8241;48.786;9.250;2023-04-03T15:12:43;8.80;79.90
16267;DHT22;8241;48.786;9.250;2023-04-03T15:15:10;8.80;79.90
16267;DHT22;8241;48.786;9.250;2023-04-03T15:17:37;8.90;78.70
16267;DHT22;8241;48.786;9.250;2023-04-03T15:20:06;8.90;78.20
16267;DHT22;8241;48.786;9.250;2023-04-03T15:22:38;8.80;76.60
16267;DHT22;8241;48.786;9.250;2023-04-03T15:25:05;8.60;76.90
16267;DHT22;8241;48.786;9.250;2023-04-03T15:27:33;8.50;77.10
16267;DHT22;8241;48.786;9.250;2023-04-03T15:30:00;8.40;77.20
16267;DHT22;8241;48.786;9.250;2023-04-03T15:32:27;8.30;77.20
16267;DHT22;8241;48.786;9.250;2023-04-03T15:34:54;8.20;78.20
16267;DHT22;8241;48.786;9.250;2023-04-03T15:37:21;8.10;79.00
16267;DHT22;8241;48.786;9.250;2023-04-03T15:39:52;8.10;79.40
16267;DHT22;8241;48.786;9.250;2023-04-03T15:42:20;8.10;79.70
16267;DHT22;8241;48.786;9.250;2023-04-03T15:44:49;8.10;80.20
16267;DHT22;8241;48.786;9.250;2023-04-03T15:47:16;8.20;79.30
16267;DHT22;8241;48.786;9.250;2023-04-03T15:49:44;8.30;79.30
16267;DHT22;8241;48.786;9.250;2023-04-03T15:52:11;8.30;78.70
16267;DHT22;8241;48.786;9.250;2023-04-03T15:54:41;8.40;78.20
16267;DHT22;8241;48.786;9.250;2023-04-03T15:57:09;8.40;77.40
16267;DHT22;8241;48.786;9.250;2023-04-03T15:59:36;8.40;78.50
16267;DHT22;8241;48.786;9.250;2023-04-03T16:02:07;8.50;78.70
16267;DHT22;8241;48.786;9.250;2023-04-03T16:04:35;8.60;77.60
16267;DHT22;8241;48.786;9.250;2023-04-03T16:07:02;8.70;77.30
16267;DHT22;8241;48.786;9.250;2023-04-03T16:09:29;8.70;76.90
16267;DHT22;8241;48.786;9.250;2023-04-03T16:11:56;8.60;77.70
16267;DHT22;8241;48.786;9.250;2023-04-03T16:14:24;8.60;76.40
16267;DHT22;8241;48.786;9.250;2023-04-03T16:16:52;8.50;74.80
16267;DHT22;8241;48.786;9.250;2023-04-03T16:19:20;8.40;75.30
16267;DHT22;8241;48.786;9.250;2023-04-03T16:21:47;8.30;76.10
16267;DHT22;8241;48.786;9.250;2023-04-03T16:24:15;8.30;76.80
16267;DHT22;8241;48.786;9.250;2023-04-03T16:26:43;8.20;77.10
16267;DHT22;8241;48.786;9.250;2023-04-03T16:29:10;8.20;76.90
16267;DHT22;8241;48.786;9.250;2023-04-03T16:31:36;8.20;77.80
16267;DHT22;8241;48.786;9.250;2023-04-03T16:34:03;8.20;76.60